This is the latest recevied weather packets stored in our database for station/object EA4GRN-10. If no packets are shown the sender has not sent any weather packets the latest 10 day(s).
| Time | Temp. | Humidity | Pressure | Rain* | Wind** | Luminosity | Snow |
|---|---|---|---|---|---|---|---|
| 1787851635 | 30.56° C | 41% | 1014.7 hPa | - | - | - | - |
| 1787851581 | 30.56° C | 40% | 1014.8 hPa | - | - | - | - |
| 1787850681 | 30.56° C | 40% | 1014.8 hPa | - | - | - | - |
| 1787849781 | 31.11° C | 40% | 1014.7 hPa | - | - | - | - |
| 1787848881 | 30.56° C | 40% | 1014.6 hPa | - | - | - | - |
| 1787847981 | 30.56° C | 40% | 1014.6 hPa | - | - | - | - |
| 1787847080 | 26.11° C | 48% | 1014.7 hPa | - | - | - | - |
| 1787761248 | 30° C | 38% | 1023.9 hPa | - | - | - | - |
| 1787760348 | 30° C | 37% | 1024 hPa | - | - | - | - |
| 1787759448 | 30° C | 38% | 1023.9 hPa | - | - | - | - |
| 1787758548 | 31.11° C | 38% | 1023.9 hPa | - | - | - | - |
| 1787757648 | 31.67° C | 38% | 1023.7 hPa | - | - | - | - |
| 1787756748 | 31.67° C | 37% | 1023.8 hPa | - | - | - | - |
| 1787755847 | 31.67° C | 38% | 1023.9 hPa | - | - | - | - |
| 1787754947 | 31.67° C | 38% | 1023.9 hPa | - | - | - | - |
| 1787754047 | 31.67° C | 38% | 1023.9 hPa | - | - | - | - |
| 1787753147 | 31.67° C | 38% | 1023.9 hPa | - | - | - | - |
| 1787752247 | 31.67° C | 37% | 1024 hPa | - | - | - | - |
| 1787751346 | 31.67° C | 38% | 1023.9 hPa | - | - | - | - |
| 1787750445 | 31.67° C | 36% | 1023.9 hPa | - | - | - | - |
| 1787749548 | 31.67° C | 38% | 1024.2 hPa | - | - | - | - |
| 1787748648 | 31.67° C | 38% | 1024 hPa | - | - | - | - |
| 1787747748 | 31.67° C | 39% | 1024.1 hPa | - | - | - | - |
| 1787746847 | 31.67° C | 41% | 1024.5 hPa | - | - | - | - |
| 1787745947 | 31.67° C | 42% | 1024.5 hPa | - | - | - | - |
* Rain since midnight (hover to see other rain measurements)
** Current wind speed in m/s (hover to see current wind gust speed)